createdAt,value
2023-03-13T00:01:51.508Z,43.13
2023-03-13T00:04:21.610Z,40.50
2023-03-13T00:06:51.202Z,35.27
2023-03-13T00:09:21.007Z,36.03
2023-03-13T00:11:53.241Z,33.87
2023-03-13T00:14:22.830Z,35.47
2023-03-13T00:16:52.454Z,39.07
2023-03-13T00:19:22.188Z,45.50
2023-03-13T00:21:51.873Z,33.13
2023-03-13T00:24:21.492Z,34.90
2023-03-13T00:26:53.713Z,39.03
2023-03-13T00:29:23.348Z,28.50
2023-03-13T00:31:53.143Z,31.10
2023-03-13T00:34:22.861Z,35.90
2023-03-13T00:36:52.499Z,30.97
2023-03-13T00:39:22.095Z,41.07
2023-03-13T00:41:54.370Z,39.87
2023-03-13T00:44:24.116Z,34.63
2023-03-13T00:46:53.793Z,37.07
2023-03-13T00:49:23.405Z,27.83
2023-03-13T00:51:53.035Z,32.97
2023-03-13T00:54:22.778Z,30.60
2023-03-13T00:56:55.219Z,33.93
2023-03-13T00:59:24.903Z,28.17
2023-03-13T01:01:54.756Z,33.03
2023-03-13T01:04:24.636Z,36.30
2023-03-13T01:06:54.221Z,22.17
2023-03-13T01:09:23.853Z,30.03
2023-03-13T01:11:56.302Z,22.43
2023-03-13T01:14:26.031Z,28.00
2023-03-13T01:16:56.766Z,38.00
2023-03-13T01:19:27.362Z,32.90
2023-03-13T01:21:57.119Z,27.03
2023-03-13T01:24:27.778Z,29.67
2023-03-13T01:27:01.088Z,31.57
2023-03-13T01:29:30.922Z,28.43
2023-03-13T01:32:00.531Z,25.80
2023-03-13T01:34:30.188Z,26.80
2023-03-13T01:37:00.665Z,28.40
2023-03-13T01:39:30.437Z,26.83
2023-03-13T01:42:02.730Z,23.77
2023-03-13T01:44:32.601Z,43.00
2023-03-13T01:47:02.231Z,40.07
2023-03-13T01:49:57.368Z,29.60
2023-03-13T01:52:52.184Z,26.13
2023-03-13T01:55:26.517Z,25.43
2023-03-13T01:57:59.565Z,31.27
2023-03-13T02:00:34.344Z,16.97
2023-03-13T02:03:09.171Z,28.77
2023-03-13T02:05:39.773Z,19.53
2023-03-13T02:08:14.463Z,35.97
2023-03-13T02:10:52.587Z,31.27
2023-03-13T02:13:25.296Z,25.83
2023-03-13T02:15:55.121Z,22.47
2023-03-13T02:18:26.096Z,28.63
2023-03-13T02:21:01.141Z,21.77
2023-03-13T02:23:34.297Z,22.70
2023-03-13T02:26:06.884Z,25.77
2023-03-13T02:28:39.772Z,29.43
2023-03-13T02:31:15.933Z,27.30
2023-03-13T02:33:46.536Z,23.83
2023-03-13T02:36:20.520Z,27.53
2023-03-13T02:38:57.330Z,17.60
2023-03-13T02:41:31.737Z,22.43
2023-03-13T02:44:02.606Z,27.07
2023-03-13T02:46:32.600Z,26.87
2023-03-13T02:49:13.875Z,28.83
2023-03-13T02:51:47.557Z,22.53
2023-03-13T02:54:21.984Z,31.93
2023-03-13T02:56:58.713Z,27.73
2023-03-13T02:59:28.601Z,29.77
2023-03-13T03:01:58.456Z,21.23
2023-03-13T03:04:29.833Z,18.47
2023-03-13T03:06:59.779Z,23.13
2023-03-13T03:09:29.618Z,36.90
2023-03-13T03:12:06.676Z,31.70
2023-03-13T03:14:36.561Z,25.57
2023-03-13T03:17:06.344Z,23.03
2023-03-13T03:19:36.075Z,16.87
2023-03-13T03:22:05.824Z,34.30
2023-03-13T03:24:36.177Z,24.83
2023-03-13T03:27:10.041Z,24.83
2023-03-13T03:29:45.981Z,16.30
2023-03-13T03:32:15.733Z,28.90
2023-03-13T03:34:46.035Z,25.50
2023-03-13T03:37:16.329Z,24.40
2023-03-13T03:39:46.022Z,26.03
2023-03-13T03:42:18.299Z,20.80
2023-03-13T03:44:47.959Z,30.97
2023-03-13T03:47:18.070Z,32.37
2023-03-13T03:49:50.200Z,20.80
2023-03-13T03:52:20.091Z,25.13
2023-03-13T03:54:50.632Z,29.73
2023-03-13T03:57:23.760Z,28.53
2023-03-13T03:59:53.458Z,35.23
2023-03-13T04:02:25.031Z,20.30
2023-03-13T04:04:55.323Z,21.60
2023-03-13T04:07:31.021Z,23.17
2023-03-13T04:10:01.803Z,22.13
2023-03-13T04:12:41.484Z,30.47
2023-03-13T04:15:11.941Z,20.57
2023-03-13T04:17:41.883Z,15.57
2023-03-13T04:20:14.642Z,24.43
2023-03-13T04:26:03.843Z,21.63
2023-03-13T04:28:36.784Z,25.07
2023-03-13T04:31:09.399Z,13.60
2023-03-13T04:34:06.173Z,20.77
2023-03-13T04:36:54.570Z,24.30
2023-03-13T04:39:43.792Z,21.00
2023-03-13T04:42:24.050Z,28.70
2023-03-13T04:45:22.213Z,22.80
2023-03-13T04:48:02.650Z,22.27
2023-03-13T04:51:01.998Z,18.50
2023-03-13T04:53:50.442Z,23.40
2023-03-13T04:56:43.758Z,17.17
2023-03-13T04:59:34.950Z,20.67
2023-03-13T05:02:10.044Z,16.20
2023-03-13T05:04:52.304Z,16.13
2023-03-13T05:07:40.821Z,15.73
2023-03-13T05:10:33.452Z,15.73
2023-03-13T05:13:28.558Z,10.57
2023-03-13T05:16:30.462Z,17.13
2023-03-13T05:19:25.502Z,15.33
2023-03-13T05:22:24.387Z,17.03
2023-03-13T05:25:29.593Z,14.07
2023-03-13T05:28:19.478Z,17.03
2023-03-13T05:30:51.733Z,9.80
2023-03-13T05:33:59.740Z,16.53
2023-03-13T05:37:05.772Z,10.10
2023-03-13T05:39:47.093Z,11.97
2023-03-13T05:42:28.171Z,12.73
2023-03-13T05:45:23.485Z,9.20
2023-03-13T05:48:12.994Z,6.60
2023-03-13T05:51:17.616Z,14.37
2023-03-13T05:53:55.818Z,10.10
2023-03-13T05:56:38.738Z,7.07
2023-03-13T05:59:17.896Z,9.60
2023-03-13T06:02:03.694Z,6.77
2023-03-13T06:04:42.975Z,11.03
2023-03-13T06:07:13.135Z,5.90
2023-03-13T06:09:45.481Z,8.03
2023-03-13T06:12:16.340Z,8.43
2023-03-13T06:14:45.919Z,6.73
2023-03-13T06:17:25.622Z,7.30
2023-03-13T06:19:55.251Z,6.20
2023-03-13T06:22:24.911Z,4.70
2023-03-13T06:24:57.145Z,8.53
2023-03-13T06:27:26.759Z,5.70
2023-03-13T06:29:56.534Z,10.47
2023-03-13T06:32:26.260Z,4.13
2023-03-13T06:34:55.909Z,6.50
2023-03-13T06:37:25.647Z,5.53
2023-03-13T06:39:57.864Z,6.07
2023-03-13T06:42:27.510Z,6.70
2023-03-13T06:44:57.089Z,4.73
2023-03-13T06:47:26.786Z,5.97
2023-03-13T06:49:56.376Z,7.17
2023-03-13T06:52:37.462Z,7.67
2023-03-13T06:55:14.671Z,6.53
2023-03-13T06:57:44.311Z,5.47
2023-03-13T07:00:15.107Z,5.07
2023-03-13T07:02:44.792Z,5.33
2023-03-13T07:05:14.839Z,3.47
2023-03-13T07:07:44.968Z,5.50
2023-03-13T07:10:17.191Z,5.80
2023-03-13T07:12:46.864Z,3.60
2023-03-13T07:15:16.641Z,6.73
2023-03-13T07:17:46.251Z,5.40
2023-03-13T07:20:17.790Z,5.03
2023-03-13T07:22:47.581Z,6.67
2023-03-13T07:25:20.034Z,4.30
2023-03-13T07:27:53.291Z,4.47
2023-03-13T07:30:23.103Z,3.73
2023-03-13T07:32:52.840Z,4.23
2023-03-13T07:35:22.538Z,7.63
2023-03-13T07:37:52.173Z,5.70
2023-03-13T07:40:24.454Z,4.63
2023-03-13T07:42:54.154Z,4.40
2023-03-13T07:45:23.820Z,6.03
2023-03-13T07:47:53.491Z,8.77
2023-03-13T07:50:23.217Z,4.40
2023-03-13T07:52:52.906Z,8.67
2023-03-13T07:55:25.135Z,7.73
2023-03-13T07:57:54.740Z,7.43
2023-03-13T08:00:25.540Z,5.97
2023-03-13T08:02:55.144Z,6.47
2023-03-13T08:05:24.779Z,6.90
2023-03-13T08:07:54.383Z,7.93
2023-03-13T08:10:26.563Z,6.90
2023-03-13T08:12:56.134Z,6.43
2023-03-13T08:15:26.400Z,8.80
2023-03-13T08:17:56.044Z,7.30
2023-03-13T08:20:26.087Z,6.43
2023-03-13T08:22:58.391Z,7.63
2023-03-13T08:25:30.665Z,7.67
2023-03-13T08:28:02.403Z,9.63
2023-03-13T08:30:32.274Z,5.60
2023-03-13T08:33:01.963Z,4.30
2023-03-13T08:35:32.236Z,5.23
2023-03-13T08:38:02.802Z,5.83
2023-03-13T08:40:35.165Z,5.73
2023-03-13T08:43:04.935Z,4.83
2023-03-13T08:45:34.656Z,4.70
2023-03-13T08:48:04.380Z,3.10
2023-03-13T08:50:34.121Z,5.00
2023-03-13T08:53:03.798Z,5.13
2023-03-13T08:55:36.129Z,4.57
2023-03-13T08:58:05.921Z,4.63
2023-03-13T09:00:35.920Z,5.60
2023-03-13T09:03:05.702Z,9.30
2023-03-13T09:05:52.957Z,7.63
2023-03-13T09:08:24.784Z,7.13
2023-03-13T09:11:02.197Z,7.63
2023-03-13T09:13:33.917Z,3.30
2023-03-13T09:16:05.679Z,6.43
2023-03-13T09:18:36.555Z,5.13
2023-03-13T09:21:11.900Z,13.13
2023-03-13T09:23:41.803Z,9.87
2023-03-13T09:26:15.567Z,2.70
2023-03-13T09:28:45.337Z,2.70
2023-03-13T09:31:16.861Z,5.50
2023-03-13T09:33:48.198Z,4.30
2023-03-13T09:36:21.521Z,6.83
2023-03-13T09:38:52.684Z,4.37
2023-03-13T09:41:34.068Z,3.43
2023-03-13T09:44:10.333Z,4.37
2023-03-13T09:46:46.465Z,8.13
2023-03-13T09:49:20.932Z,5.13
2023-03-13T09:51:56.215Z,7.73
2023-03-13T09:54:29.190Z,6.30
2023-03-13T09:57:10.110Z,6.77
2023-03-13T09:59:48.658Z,5.10
2023-03-13T10:02:27.350Z,5.70
2023-03-13T10:05:05.408Z,4.93
2023-03-13T10:07:35.199Z,5.80
2023-03-13T10:10:07.913Z,11.93
2023-03-13T10:12:44.630Z,5.43
2023-03-13T10:15:38.760Z,5.17
2023-03-13T10:18:20.465Z,4.20
2023-03-13T10:20:52.660Z,13.60
2023-03-13T10:23:30.111Z,7.47
2023-03-13T10:25:59.983Z,11.83
2023-03-13T10:28:32.542Z,9.70
2023-03-13T10:31:10.941Z,10.57
2023-03-13T10:33:41.221Z,11.43
2023-03-13T10:36:13.573Z,8.83
2023-03-13T10:38:52.676Z,7.87
2023-03-13T10:41:28.151Z,6.30
2023-03-13T10:44:03.954Z,6.70
2023-03-13T10:46:35.732Z,5.50
2023-03-13T10:49:09.079Z,5.50
2023-03-13T10:51:40.941Z,6.90
2023-03-13T10:54:19.636Z,9.60
2023-03-13T10:56:49.985Z,7.20
2023-03-13T10:59:29.365Z,10.83
2023-03-13T11:02:03.917Z,8.03
2023-03-13T11:04:37.693Z,7.47
2023-03-13T11:07:09.414Z,6.00
2023-03-13T11:09:39.352Z,3.50
2023-03-13T11:12:14.799Z,9.53
2023-03-13T11:14:48.775Z,6.17
2023-03-13T11:17:33.038Z,5.23
2023-03-13T11:20:11.216Z,9.33
2023-03-13T11:22:54.285Z,7.37
2023-03-13T11:25:36.714Z,4.73
2023-03-13T11:28:22.932Z,4.83
2023-03-13T11:31:06.469Z,7.47
2023-03-13T11:33:47.532Z,3.00
2023-03-13T11:36:25.842Z,9.33
2023-03-13T11:38:59.483Z,3.37
2023-03-13T11:41:39.166Z,6.57
2023-03-13T11:44:32.367Z,6.80
2023-03-13T11:47:23.454Z,5.00
2023-03-13T11:50:07.786Z,3.67
2023-03-13T11:52:47.383Z,7.80
2023-03-13T11:55:44.044Z,10.83
2023-03-13T11:58:36.614Z,4.50
2023-03-13T12:01:12.081Z,9.20
2023-03-13T12:03:57.199Z,6.20
2023-03-13T12:06:32.323Z,5.60
2023-03-13T12:09:09.627Z,6.20
2023-03-13T12:11:44.279Z,5.17
2023-03-13T12:14:20.344Z,7.43
2023-03-13T12:17:26.159Z,4.30
2023-03-13T12:20:53.499Z,6.20
2023-03-13T12:26:46.054Z,5.87
2023-03-13T12:29:20.245Z,2.80
2023-03-13T12:31:55.787Z,4.33
2023-03-13T12:34:34.933Z,3.43
2023-03-13T12:37:26.922Z,6.10
2023-03-13T12:40:07.404Z,3.70
2023-03-13T12:42:58.824Z,4.33
2023-03-13T12:45:42.464Z,10.17
2023-03-13T12:49:16.497Z,3.40
2023-03-13T12:56:33.653Z,4.57
2023-03-13T13:04:03.218Z,2.40
2023-03-13T13:07:13.112Z,2.43
2023-03-13T13:10:18.589Z,3.53
2023-03-13T13:12:55.772Z,3.70
2023-03-13T13:15:30.301Z,3.33
2023-03-13T13:18:36.510Z,2.03
2023-03-13T15:05:43.671Z,2.33
2023-03-13T15:16:46.613Z,2.13
2023-03-13T15:40:24.473Z,3.67
2023-03-13T15:43:02.884Z,4.90
2023-03-13T15:45:36.679Z,1.70
2023-03-13T16:05:29.167Z,2.10
2023-03-13T16:11:05.378Z,1.97
2023-03-13T16:17:00.247Z,1.90
2023-03-13T16:27:02.065Z,48.40
2023-03-13T16:34:11.240Z,4.77
2023-03-13T16:38:08.392Z,1.00
2023-03-13T17:04:04.520Z,2.40
2023-03-13T17:06:36.283Z,2.67
2023-03-13T17:09:07.494Z,2.90
2023-03-13T17:11:38.829Z,2.40
2023-03-13T17:14:08.614Z,7.50
2023-03-13T17:16:44.141Z,3.47
2023-03-13T17:27:57.507Z,3.60
2023-03-13T17:54:40.950Z,1.90
2023-03-13T18:01:03.772Z,2.57
2023-03-13T22:36:50.536Z,5.33
2023-03-13T22:39:21.091Z,4.90
2023-03-13T22:41:58.510Z,4.30
